sensor_id;sensor_type;location;lat;lon;timestamp;P1;durP1;ratioP1;P2;durP2;ratioP2
6809;SDS011;3443;48.812;9.112;2023-03-08T00:00:31;4.27;;;3.47;;
6809;SDS011;3443;48.812;9.112;2023-03-08T00:02:57;4.70;;;4.20;;
6809;SDS011;3443;48.812;9.112;2023-03-08T00:05:23;6.10;;;4.00;;
6809;SDS011;3443;48.812;9.112;2023-03-08T00:07:51;4.63;;;3.83;;
6809;SDS011;3443;48.812;9.112;2023-03-08T00:10:17;5.10;;;4.23;;
6809;SDS011;3443;48.812;9.112;2023-03-08T00:12:43;6.93;;;4.80;;
6809;SDS011;3443;48.812;9.112;2023-03-08T00:15:08;5.43;;;4.47;;
6809;SDS011;3443;48.812;9.112;2023-03-08T00:17:35;5.23;;;4.33;;
6809;SDS011;3443;48.812;9.112;2023-03-08T00:20:02;5.17;;;4.43;;
6809;SDS011;3443;48.812;9.112;2023-03-08T00:22:33;6.40;;;4.60;;
6809;SDS011;3443;48.812;9.112;2023-03-08T00:25:02;6.10;;;4.53;;
6809;SDS011;3443;48.812;9.112;2023-03-08T00:27:29;5.87;;;4.50;;
6809;SDS011;3443;48.812;9.112;2023-03-08T00:29:54;5.23;;;4.67;;
6809;SDS011;3443;48.812;9.112;2023-03-08T00:32:20;5.83;;;4.43;;
6809;SDS011;3443;48.812;9.112;2023-03-08T00:34:45;7.43;;;5.17;;
6809;SDS011;3443;48.812;9.112;2023-03-08T00:37:11;7.37;;;4.67;;
6809;SDS011;3443;48.812;9.112;2023-03-08T00:39:38;7.67;;;4.77;;
6809;SDS011;3443;48.812;9.112;2023-03-08T00:42:04;6.03;;;4.43;;
6809;SDS011;3443;48.812;9.112;2023-03-08T00:44:29;5.87;;;5.20;;
6809;SDS011;3443;48.812;9.112;2023-03-08T00:46:55;7.83;;;5.37;;
6809;SDS011;3443;48.812;9.112;2023-03-08T00:49:20;6.27;;;4.80;;
6809;SDS011;3443;48.812;9.112;2023-03-08T00:51:48;6.33;;;5.47;;
6809;SDS011;3443;48.812;9.112;2023-03-08T00:54:13;7.80;;;5.53;;
6809;SDS011;3443;48.812;9.112;2023-03-08T00:56:39;7.53;;;5.70;;
6809;SDS011;3443;48.812;9.112;2023-03-08T00:59:05;7.77;;;5.23;;
6809;SDS011;3443;48.812;9.112;2023-03-08T01:01:31;6.43;;;5.47;;
6809;SDS011;3443;48.812;9.112;2023-03-08T01:03:57;7.17;;;5.97;;
6809;SDS011;3443;48.812;9.112;2023-03-08T01:06:23;8.80;;;5.73;;
6809;SDS011;3443;48.812;9.112;2023-03-08T01:08:49;8.70;;;5.90;;
6809;SDS011;3443;48.812;9.112;2023-03-08T01:11:16;8.50;;;6.13;;
6809;SDS011;3443;48.812;9.112;2023-03-08T01:13:46;9.00;;;6.40;;
6809;SDS011;3443;48.812;9.112;2023-03-08T01:16:24;7.73;;;6.40;;
6809;SDS011;3443;48.812;9.112;2023-03-08T01:18:52;8.23;;;6.50;;
6809;SDS011;3443;48.812;9.112;2023-03-08T01:21:18;8.07;;;6.43;;
6809;SDS011;3443;48.812;9.112;2023-03-08T01:23:44;8.13;;;6.13;;
6809;SDS011;3443;48.812;9.112;2023-03-08T01:26:11;8.30;;;7.00;;
6809;SDS011;3443;48.812;9.112;2023-03-08T01:28:39;9.10;;;6.63;;
6809;SDS011;3443;48.812;9.112;2023-03-08T01:31:15;10.20;;;6.93;;
6809;SDS011;3443;48.812;9.112;2023-03-08T01:33:43;10.70;;;7.13;;
6809;SDS011;3443;48.812;9.112;2023-03-08T01:36:11;8.73;;;6.40;;
6809;SDS011;3443;48.812;9.112;2023-03-08T01:38:39;7.97;;;6.50;;
6809;SDS011;3443;48.812;9.112;2023-03-08T01:41:06;9.50;;;7.23;;
6809;SDS011;3443;48.812;9.112;2023-03-08T01:43:37;10.77;;;7.57;;
6809;SDS011;3443;48.812;9.112;2023-03-08T01:48:39;10.40;;;7.47;;
6809;SDS011;3443;48.812;9.112;2023-03-08T01:51:10;9.53;;;7.80;;
6809;SDS011;3443;48.812;9.112;2023-03-08T01:53:39;10.13;;;7.47;;
6809;SDS011;3443;48.812;9.112;2023-03-08T01:56:08;10.27;;;7.73;;
6809;SDS011;3443;48.812;9.112;2023-03-08T01:58:37;9.50;;;7.60;;
6809;SDS011;3443;48.812;9.112;2023-03-08T02:01:05;10.20;;;8.23;;
6809;SDS011;3443;48.812;9.112;2023-03-08T02:03:30;12.50;;;8.60;;
6809;SDS011;3443;48.812;9.112;2023-03-08T02:05:56;12.30;;;7.80;;
6809;SDS011;3443;48.812;9.112;2023-03-08T02:08:22;10.97;;;7.33;;
6809;SDS011;3443;48.812;9.112;2023-03-08T02:10:47;12.23;;;7.50;;
6809;SDS011;3443;48.812;9.112;2023-03-08T02:13:14;9.20;;;7.50;;
6809;SDS011;3443;48.812;9.112;2023-03-08T02:15:40;8.80;;;7.23;;
6809;SDS011;3443;48.812;9.112;2023-03-08T02:18:06;11.90;;;8.03;;
6809;SDS011;3443;48.812;9.112;2023-03-08T02:20:34;10.60;;;7.27;;
6809;SDS011;3443;48.812;9.112;2023-03-08T02:23:09;11.97;;;7.40;;
6809;SDS011;3443;48.812;9.112;2023-03-08T02:25:36;11.43;;;6.97;;
6809;SDS011;3443;48.812;9.112;2023-03-08T02:28:02;8.40;;;6.73;;
6809;SDS011;3443;48.812;9.112;2023-03-08T02:30:30;9.17;;;7.20;;
6809;SDS011;3443;48.812;9.112;2023-03-08T02:32:59;10.60;;;8.13;;
6809;SDS011;3443;48.812;9.112;2023-03-08T02:35:25;10.77;;;7.27;;
6809;SDS011;3443;48.812;9.112;2023-03-08T02:37:50;10.23;;;6.90;;
6809;SDS011;3443;48.812;9.112;2023-03-08T02:40:16;9.20;;;7.20;;
6809;SDS011;3443;48.812;9.112;2023-03-08T02:42:42;10.30;;;6.80;;
6809;SDS011;3443;48.812;9.112;2023-03-08T02:45:07;10.63;;;6.53;;
6809;SDS011;3443;48.812;9.112;2023-03-08T02:47:34;9.80;;;7.13;;
6809;SDS011;3443;48.812;9.112;2023-03-08T02:49:59;9.57;;;6.70;;
6809;SDS011;3443;48.812;9.112;2023-03-08T02:52:25;10.73;;;7.00;;
6809;SDS011;3443;48.812;9.112;2023-03-08T02:54:51;8.70;;;6.83;;
6809;SDS011;3443;48.812;9.112;2023-03-08T02:57:17;11.40;;;6.77;;
6809;SDS011;3443;48.812;9.112;2023-03-08T02:59:43;8.70;;;6.30;;
6809;SDS011;3443;48.812;9.112;2023-03-08T03:02:09;9.60;;;6.90;;
6809;SDS011;3443;48.812;9.112;2023-03-08T03:04:34;8.67;;;6.60;;
6809;SDS011;3443;48.812;9.112;2023-03-08T03:07:00;7.73;;;6.33;;
6809;SDS011;3443;48.812;9.112;2023-03-08T03:09:25;9.20;;;6.37;;
6809;SDS011;3443;48.812;9.112;2023-03-08T03:11:52;6.97;;;5.73;;
6809;SDS011;3443;48.812;9.112;2023-03-08T03:14:17;11.20;;;6.80;;
6809;SDS011;3443;48.812;9.112;2023-03-08T03:16:43;9.23;;;6.50;;
6809;SDS011;3443;48.812;9.112;2023-03-08T03:19:09;8.43;;;6.37;;
6809;SDS011;3443;48.812;9.112;2023-03-08T03:21:36;9.30;;;5.97;;
6809;SDS011;3443;48.812;9.112;2023-03-08T03:24:02;7.77;;;6.20;;
6809;SDS011;3443;48.812;9.112;2023-03-08T03:26:28;8.80;;;5.93;;
6809;SDS011;3443;48.812;9.112;2023-03-08T03:28:54;9.13;;;6.13;;
6809;SDS011;3443;48.812;9.112;2023-03-08T03:31:21;7.20;;;5.53;;
6809;SDS011;3443;48.812;9.112;2023-03-08T03:33:48;8.60;;;5.77;;
6809;SDS011;3443;48.812;9.112;2023-03-08T03:36:15;6.67;;;5.60;;
6809;SDS011;3443;48.812;9.112;2023-03-08T03:38:43;7.73;;;5.40;;
6809;SDS011;3443;48.812;9.112;2023-03-08T03:41:11;8.10;;;5.80;;
6809;SDS011;3443;48.812;9.112;2023-03-08T03:43:38;7.17;;;5.67;;
6809;SDS011;3443;48.812;9.112;2023-03-08T03:46:05;9.47;;;5.40;;
6809;SDS011;3443;48.812;9.112;2023-03-08T03:48:34;9.00;;;6.67;;
6809;SDS011;3443;48.812;9.112;2023-03-08T03:51:01;7.83;;;5.57;;
6809;SDS011;3443;48.812;9.112;2023-03-08T03:53:29;9.67;;;5.60;;
6809;SDS011;3443;48.812;9.112;2023-03-08T03:56:01;9.50;;;6.10;;
6809;SDS011;3443;48.812;9.112;2023-03-08T03:58:28;8.93;;;6.00;;
6809;SDS011;3443;48.812;9.112;2023-03-08T04:00:53;8.63;;;5.90;;
6809;SDS011;3443;48.812;9.112;2023-03-08T04:03:20;9.20;;;5.93;;
6809;SDS011;3443;48.812;9.112;2023-03-08T04:05:46;7.00;;;5.93;;
6809;SDS011;3443;48.812;9.112;2023-03-08T04:08:11;8.57;;;5.93;;
6809;SDS011;3443;48.812;9.112;2023-03-08T04:10:37;7.00;;;5.90;;
6809;SDS011;3443;48.812;9.112;2023-03-08T04:13:03;8.30;;;6.13;;
6809;SDS011;3443;48.812;9.112;2023-03-08T04:15:29;7.60;;;5.37;;
6809;SDS011;3443;48.812;9.112;2023-03-08T04:17:54;7.07;;;5.73;;
6809;SDS011;3443;48.812;9.112;2023-03-08T04:20:20;7.00;;;5.90;;
6809;SDS011;3443;48.812;9.112;2023-03-08T04:22:46;9.27;;;6.30;;
6809;SDS011;3443;48.812;9.112;2023-03-08T04:25:11;6.53;;;5.53;;
6809;SDS011;3443;48.812;9.112;2023-03-08T04:27:37;6.37;;;5.63;;
6809;SDS011;3443;48.812;9.112;2023-03-08T04:30:03;8.33;;;5.73;;
6809;SDS011;3443;48.812;9.112;2023-03-08T04:32:30;8.40;;;6.60;;
6809;SDS011;3443;48.812;9.112;2023-03-08T04:34:56;7.40;;;5.80;;
6809;SDS011;3443;48.812;9.112;2023-03-08T04:37:22;8.73;;;6.40;;
6809;SDS011;3443;48.812;9.112;2023-03-08T04:39:49;8.20;;;5.97;;
6809;SDS011;3443;48.812;9.112;2023-03-08T04:42:14;8.73;;;6.13;;
6809;SDS011;3443;48.812;9.112;2023-03-08T04:44:40;8.77;;;5.83;;
6809;SDS011;3443;48.812;9.112;2023-03-08T04:47:05;7.53;;;5.80;;
6809;SDS011;3443;48.812;9.112;2023-03-08T04:49:31;8.40;;;6.03;;
6809;SDS011;3443;48.812;9.112;2023-03-08T04:51:56;8.47;;;6.20;;
6809;SDS011;3443;48.812;9.112;2023-03-08T04:54:22;8.23;;;5.80;;
6809;SDS011;3443;48.812;9.112;2023-03-08T04:56:48;11.87;;;6.47;;
6809;SDS011;3443;48.812;9.112;2023-03-08T04:59:13;7.67;;;5.80;;
6809;SDS011;3443;48.812;9.112;2023-03-08T05:01:39;8.60;;;6.27;;
6809;SDS011;3443;48.812;9.112;2023-03-08T05:04:07;7.63;;;5.83;;
6809;SDS011;3443;48.812;9.112;2023-03-08T05:06:34;7.13;;;5.73;;
6809;SDS011;3443;48.812;9.112;2023-03-08T05:09:00;8.10;;;6.50;;
6809;SDS011;3443;48.812;9.112;2023-03-08T05:11:26;8.67;;;6.67;;
6809;SDS011;3443;48.812;9.112;2023-03-08T05:13:53;7.73;;;6.07;;
6809;SDS011;3443;48.812;9.112;2023-03-08T05:16:20;7.93;;;6.40;;
6809;SDS011;3443;48.812;9.112;2023-03-08T05:18:46;8.43;;;7.07;;
6809;SDS011;3443;48.812;9.112;2023-03-08T05:21:13;9.13;;;6.67;;
6809;SDS011;3443;48.812;9.112;2023-03-08T05:23:43;7.97;;;6.50;;
6809;SDS011;3443;48.812;9.112;2023-03-08T05:26:10;9.70;;;7.00;;
6809;SDS011;3443;48.812;9.112;2023-03-08T05:28:37;9.03;;;6.50;;
6809;SDS011;3443;48.812;9.112;2023-03-08T05:31:04;9.37;;;7.20;;
6809;SDS011;3443;48.812;9.112;2023-03-08T05:33:31;10.03;;;7.90;;
6809;SDS011;3443;48.812;9.112;2023-03-08T05:35:57;10.37;;;6.90;;
6809;SDS011;3443;48.812;9.112;2023-03-08T05:38:23;11.83;;;7.40;;
6809;SDS011;3443;48.812;9.112;2023-03-08T05:40:49;10.77;;;6.87;;
6809;SDS011;3443;48.812;9.112;2023-03-08T05:43:16;10.43;;;6.70;;
6809;SDS011;3443;48.812;9.112;2023-03-08T05:45:42;10.07;;;6.63;;
6809;SDS011;3443;48.812;9.112;2023-03-08T05:48:17;10.63;;;6.70;;
6809;SDS011;3443;48.812;9.112;2023-03-08T05:50:43;9.60;;;6.33;;
6809;SDS011;3443;48.812;9.112;2023-03-08T05:53:08;8.73;;;6.43;;
6809;SDS011;3443;48.812;9.112;2023-03-08T05:55:34;11.57;;;6.63;;
6809;SDS011;3443;48.812;9.112;2023-03-08T05:57:59;9.87;;;6.43;;
6809;SDS011;3443;48.812;9.112;2023-03-08T06:00:25;9.90;;;6.90;;
6809;SDS011;3443;48.812;9.112;2023-03-08T06:02:50;9.57;;;6.77;;
6809;SDS011;3443;48.812;9.112;2023-03-08T06:05:16;7.17;;;6.13;;
6809;SDS011;3443;48.812;9.112;2023-03-08T06:07:41;8.33;;;6.47;;
6809;SDS011;3443;48.812;9.112;2023-03-08T06:10:08;9.53;;;6.37;;
6809;SDS011;3443;48.812;9.112;2023-03-08T06:12:34;9.87;;;6.03;;
6809;SDS011;3443;48.812;9.112;2023-03-08T06:14:59;9.90;;;6.67;;
6809;SDS011;3443;48.812;9.112;2023-03-08T06:17:25;9.17;;;6.73;;
6809;SDS011;3443;48.812;9.112;2023-03-08T06:19:50;11.00;;;7.77;;
6809;SDS011;3443;48.812;9.112;2023-03-08T06:22:16;11.07;;;7.60;;
6809;SDS011;3443;48.812;9.112;2023-03-08T06:24:41;10.30;;;6.90;;
6809;SDS011;3443;48.812;9.112;2023-03-08T06:27:07;10.90;;;7.03;;
6809;SDS011;3443;48.812;9.112;2023-03-08T06:29:33;11.77;;;7.60;;
6809;SDS011;3443;48.812;9.112;2023-03-08T06:31:58;10.57;;;6.87;;
6809;SDS011;3443;48.812;9.112;2023-03-08T06:34:24;9.63;;;7.07;;
6809;SDS011;3443;48.812;9.112;2023-03-08T06:36:49;11.37;;;7.33;;
6809;SDS011;3443;48.812;9.112;2023-03-08T06:39:16;10.30;;;7.63;;
6809;SDS011;3443;48.812;9.112;2023-03-08T06:41:41;10.97;;;7.90;;
6809;SDS011;3443;48.812;9.112;2023-03-08T06:44:07;12.53;;;7.70;;
6809;SDS011;3443;48.812;9.112;2023-03-08T06:46:34;11.83;;;7.73;;
6809;SDS011;3443;48.812;9.112;2023-03-08T06:48:59;8.63;;;6.87;;
6809;SDS011;3443;48.812;9.112;2023-03-08T06:51:25;10.70;;;7.17;;
6809;SDS011;3443;48.812;9.112;2023-03-08T06:53:51;10.63;;;7.47;;
6809;SDS011;3443;48.812;9.112;2023-03-08T06:56:16;9.70;;;7.67;;
6809;SDS011;3443;48.812;9.112;2023-03-08T06:58:42;9.10;;;7.10;;
6809;SDS011;3443;48.812;9.112;2023-03-08T07:01:08;13.00;;;7.87;;
6809;SDS011;3443;48.812;9.112;2023-03-08T07:03:34;11.70;;;7.83;;
6809;SDS011;3443;48.812;9.112;2023-03-08T07:06:07;13.57;;;8.10;;
6809;SDS011;3443;48.812;9.112;2023-03-08T07:08:34;13.07;;;7.53;;
6809;SDS011;3443;48.812;9.112;2023-03-08T07:11:00;10.15;;;7.75;;
6809;SDS011;3443;48.812;9.112;2023-03-08T07:13:25;9.68;;;7.38;;
6809;SDS011;3443;48.812;9.112;2023-03-08T07:15:52;11.53;;;7.40;;
6809;SDS011;3443;48.812;9.112;2023-03-08T07:18:18;11.17;;;7.50;;
6809;SDS011;3443;48.812;9.112;2023-03-08T07:20:44;9.87;;;7.40;;
6809;SDS011;3443;48.812;9.112;2023-03-08T07:23:15;11.10;;;7.63;;
6809;SDS011;3443;48.812;9.112;2023-03-08T07:25:40;12.63;;;7.03;;
6809;SDS011;3443;48.812;9.112;2023-03-08T07:28:06;10.93;;;7.63;;
6809;SDS011;3443;48.812;9.112;2023-03-08T07:30:31;9.45;;;6.80;;
6809;SDS011;3443;48.812;9.112;2023-03-08T07:32:57;9.73;;;6.77;;
6809;SDS011;3443;48.812;9.112;2023-03-08T07:35:23;9.17;;;6.87;;
6809;SDS011;3443;48.812;9.112;2023-03-08T07:37:48;8.43;;;6.70;;
6809;SDS011;3443;48.812;9.112;2023-03-08T07:40:15;10.50;;;6.40;;
6809;SDS011;3443;48.812;9.112;2023-03-08T07:42:42;11.23;;;6.63;;
6809;SDS011;3443;48.812;9.112;2023-03-08T07:45:09;10.05;;;6.43;;
6809;SDS011;3443;48.812;9.112;2023-03-08T07:47:36;10.47;;;6.77;;
6809;SDS011;3443;48.812;9.112;2023-03-08T07:50:02;10.93;;;6.82;;
6809;SDS011;3443;48.812;9.112;2023-03-08T07:52:28;8.90;;;6.32;;
6809;SDS011;3443;48.812;9.112;2023-03-08T07:54:54;9.20;;;6.33;;
6809;SDS011;3443;48.812;9.112;2023-03-08T07:57:21;10.90;;;6.50;;
6809;SDS011;3443;48.812;9.112;2023-03-08T07:59:47;11.13;;;6.75;;
6809;SDS011;3443;48.812;9.112;2023-03-08T08:02:14;10.68;;;6.38;;
6809;SDS011;3443;48.812;9.112;2023-03-08T08:04:39;9.52;;;6.85;;
6809;SDS011;3443;48.812;9.112;2023-03-08T08:07:06;10.60;;;6.80;;
6809;SDS011;3443;48.812;9.112;2023-03-08T08:09:35;9.02;;;6.43;;
6809;SDS011;3443;48.812;9.112;2023-03-08T08:12:01;9.75;;;6.70;;
6809;SDS011;3443;48.812;9.112;2023-03-08T08:14:27;9.97;;;6.93;;
6809;SDS011;3443;48.812;9.112;2023-03-08T08:16:53;9.73;;;6.57;;
6809;SDS011;3443;48.812;9.112;2023-03-08T08:19:19;10.38;;;6.72;;
6809;SDS011;3443;48.812;9.112;2023-03-08T08:21:44;10.30;;;6.75;;
6809;SDS011;3443;48.812;9.112;2023-03-08T08:24:10;9.55;;;7.05;;
6809;SDS011;3443;48.812;9.112;2023-03-08T08:26:36;7.57;;;6.40;;
6809;SDS011;3443;48.812;9.112;2023-03-08T08:29:01;11.10;;;6.60;;
6809;SDS011;3443;48.812;9.112;2023-03-08T08:31:28;10.53;;;6.10;;
6809;SDS011;3443;48.812;9.112;2023-03-08T08:33:56;8.38;;;6.10;;
6809;SDS011;3443;48.812;9.112;2023-03-08T08:36:23;8.65;;;5.65;;
6809;SDS011;3443;48.812;9.112;2023-03-08T08:38:49;8.15;;;6.38;;
6809;SDS011;3443;48.812;9.112;2023-03-08T08:41:16;9.38;;;6.20;;
6809;SDS011;3443;48.812;9.112;2023-03-08T08:43:43;10.43;;;6.25;;
6809;SDS011;3443;48.812;9.112;2023-03-08T08:46:09;9.18;;;6.38;;
6809;SDS011;3443;48.812;9.112;2023-03-08T08:48:35;8.70;;;6.57;;
6809;SDS011;3443;48.812;9.112;2023-03-08T08:51:02;11.75;;;6.68;;
6809;SDS011;3443;48.812;9.112;2023-03-08T08:53:30;10.02;;;6.95;;
6809;SDS011;3443;48.812;9.112;2023-03-08T08:55:55;11.65;;;7.03;;
6809;SDS011;3443;48.812;9.112;2023-03-08T08:58:22;9.52;;;6.93;;
6809;SDS011;3443;48.812;9.112;2023-03-08T09:00:48;8.40;;;6.53;;
6809;SDS011;3443;48.812;9.112;2023-03-08T09:03:14;9.70;;;6.45;;
6809;SDS011;3443;48.812;9.112;2023-03-08T09:05:41;9.25;;;6.55;;
6809;SDS011;3443;48.812;9.112;2023-03-08T09:08:08;11.55;;;7.63;;
6809;SDS011;3443;48.812;9.112;2023-03-08T09:10:35;8.07;;;6.95;;
6809;SDS011;3443;48.812;9.112;2023-03-08T09:13:03;8.23;;;6.53;;
6809;SDS011;3443;48.812;9.112;2023-03-08T09:15:29;11.70;;;6.95;;
6809;SDS011;3443;48.812;9.112;2023-03-08T09:17:55;10.35;;;6.63;;
6809;SDS011;3443;48.812;9.112;2023-03-08T09:20:20;10.38;;;7.20;;
6809;SDS011;3443;48.812;9.112;2023-03-08T09:22:46;10.85;;;7.53;;
6809;SDS011;3443;48.812;9.112;2023-03-08T09:27:47;11.10;;;7.70;;
6809;SDS011;3443;48.812;9.112;2023-03-08T09:30:13;12.57;;;7.50;;
6809;SDS011;3443;48.812;9.112;2023-03-08T09:32:40;12.32;;;7.65;;
6809;SDS011;3443;48.812;9.112;2023-03-08T09:35:05;9.93;;;7.33;;
6809;SDS011;3443;48.812;9.112;2023-03-08T09:37:31;11.07;;;7.20;;
6809;SDS011;3443;48.812;9.112;2023-03-08T09:39:57;11.43;;;7.57;;
6809;SDS011;3443;48.812;9.112;2023-03-08T09:42:25;12.57;;;8.30;;
6809;SDS011;3443;48.812;9.112;2023-03-08T09:47:52;15.25;;;8.00;;
6809;SDS011;3443;48.812;9.112;2023-03-08T09:50:27;12.73;;;7.55;;
6809;SDS011;3443;48.812;9.112;2023-03-08T09:56:04;13.07;;;7.18;;
6809;SDS011;3443;48.812;9.112;2023-03-08T10:01:44;8.25;;;6.68;;
6809;SDS011;3443;48.812;9.112;2023-03-08T10:10:10;5.82;;;5.25;;
6809;SDS011;3443;48.812;9.112;2023-03-08T10:13:03;6.30;;;4.90;;
6809;SDS011;3443;48.812;9.112;2023-03-08T10:15:49;5.97;;;4.72;;
6809;SDS011;3443;48.812;9.112;2023-03-08T10:20:58;4.80;;;4.32;;
6809;SDS011;3443;48.812;9.112;2023-03-08T10:23:27;5.10;;;3.83;;
6809;SDS011;3443;48.812;9.112;2023-03-08T10:25:56;4.60;;;4.07;;
6809;SDS011;3443;48.812;9.112;2023-03-08T10:28:23;4.40;;;3.55;;
6809;SDS011;3443;48.812;9.112;2023-03-08T10:30:58;5.18;;;4.05;;
6809;SDS011;3443;48.812;9.112;2023-03-08T10:33:29;4.07;;;3.67;;
6809;SDS011;3443;48.812;9.112;2023-03-08T10:36:01;4.07;;;3.63;;
6809;SDS011;3443;48.812;9.112;2023-03-08T10:38:58;4.13;;;3.55;;
6809;SDS011;3443;48.812;9.112;2023-03-08T10:41:30;4.88;;;3.22;;
6809;SDS011;3443;48.812;9.112;2023-03-08T10:44:00;3.58;;;3.00;;
6809;SDS011;3443;48.812;9.112;2023-03-08T10:46:27;3.38;;;3.08;;
6809;SDS011;3443;48.812;9.112;2023-03-08T10:49:05;3.03;;;2.83;;
6809;SDS011;3443;48.812;9.112;2023-03-08T10:51:39;2.83;;;2.63;;
6809;SDS011;3443;48.812;9.112;2023-03-08T10:54:23;3.58;;;3.00;;
6809;SDS011;3443;48.812;9.112;2023-03-08T10:56:59;2.47;;;2.30;;
6809;SDS011;3443;48.812;9.112;2023-03-08T10:59:27;4.38;;;2.40;;
6809;SDS011;3443;48.812;9.112;2023-03-08T11:02:02;3.65;;;2.08;;
6809;SDS011;3443;48.812;9.112;2023-03-08T11:04:50;1.40;;;1.40;;
6809;SDS011;3443;48.812;9.112;2023-03-08T11:07:21;1.50;;;1.40;;
6809;SDS011;3443;48.812;9.112;2023-03-08T11:09:51;1.10;;;1.00;;
6809;SDS011;3443;48.812;9.112;2023-03-08T11:12:36;2.15;;;0.90;;
6809;SDS011;3443;48.812;9.112;2023-03-08T11:15:11;1.70;;;1.60;;
6809;SDS011;3443;48.812;9.112;2023-03-08T11:18:02;0.52;;;0.50;;
6809;SDS011;3443;48.812;9.112;2023-03-08T11:20:54;5.07;;;0.50;;
6809;SDS011;3443;48.812;9.112;2023-03-08T11:23:30;0.80;;;0.57;;
6809;SDS011;3443;48.812;9.112;2023-03-08T11:26:03;0.77;;;0.60;;
6809;SDS011;3443;48.812;9.112;2023-03-08T11:28:46;1.75;;;0.52;;
6809;SDS011;3443;48.812;9.112;2023-03-08T11:39:32;0.40;;;0.40;;
6809;SDS011;3443;48.812;9.112;2023-03-08T11:47:31;3.30;;;0.57;;
6809;SDS011;3443;48.812;9.112;2023-03-08T11:50:11;0.40;;;0.40;;
6809;SDS011;3443;48.812;9.112;2023-03-08T11:58:03;0.38;;;0.38;;
6809;SDS011;3443;48.812;9.112;2023-03-08T12:00:39;0.28;;;0.28;;
6809;SDS011;3443;48.812;9.112;2023-03-08T12:03:20;1.27;;;0.30;;
6809;SDS011;3443;48.812;9.112;2023-03-08T12:05:55;0.73;;;0.50;;
6809;SDS011;3443;48.812;9.112;2023-03-08T12:08:38;0.55;;;0.55;;
6809;SDS011;3443;48.812;9.112;2023-03-08T12:11:19;1.42;;;0.68;;
6809;SDS011;3443;48.812;9.112;2023-03-08T12:13:57;0.85;;;0.30;;
6809;SDS011;3443;48.812;9.112;2023-03-08T12:32:40;0.35;;;0.35;;
6809;SDS011;3443;48.812;9.112;2023-03-08T12:37:53;0.93;;;0.40;;
6809;SDS011;3443;48.812;9.112;2023-03-08T12:40:34;0.40;;;0.40;;
6809;SDS011;3443;48.812;9.112;2023-03-08T12:43:10;1.67;;;0.47;;
6809;SDS011;3443;48.812;9.112;2023-03-08T12:45:38;0.40;;;0.40;;
6809;SDS011;3443;48.812;9.112;2023-03-08T12:48:12;0.50;;;0.50;;
6809;SDS011;3443;48.812;9.112;2023-03-08T12:50:55;2.60;;;0.30;;
6809;SDS011;3443;48.812;9.112;2023-03-08T12:53:28;0.40;;;0.40;;
6809;SDS011;3443;48.812;9.112;2023-03-08T12:58:35;1.95;;;0.35;;
6809;SDS011;3443;48.812;9.112;2023-03-08T13:01:22;1.20;;;0.35;;
6809;SDS011;3443;48.812;9.112;2023-03-08T13:03:48;0.30;;;0.30;;
6809;SDS011;3443;48.812;9.112;2023-03-08T13:08:55;0.43;;;0.43;;
6809;SDS011;3443;48.812;9.112;2023-03-08T13:11:24;0.65;;;0.30;;
6809;SDS011;3443;48.812;9.112;2023-03-08T13:14:01;0.55;;;0.20;;
6809;SDS011;3443;48.812;9.112;2023-03-08T13:16:36;1.02;;;0.20;;
6809;SDS011;3443;48.812;9.112;2023-03-08T13:19:25;1.33;;;0.30;;
6809;SDS011;3443;48.812;9.112;2023-03-08T13:21:56;2.95;;;0.20;;
6809;SDS011;3443;48.812;9.112;2023-03-08T13:29:45;2.38;;;0.32;;
6809;SDS011;3443;48.812;9.112;2023-03-08T13:32:12;0.20;;;0.20;;
6809;SDS011;3443;48.812;9.112;2023-03-08T13:34:41;0.20;;;0.20;;
6809;SDS011;3443;48.812;9.112;2023-03-08T13:37:18;0.38;;;0.20;;
6809;SDS011;3443;48.812;9.112;2023-03-08T13:39:50;0.30;;;0.30;;
6809;SDS011;3443;48.812;9.112;2023-03-08T13:42:17;0.32;;;0.32;;
6809;SDS011;3443;48.812;9.112;2023-03-08T13:44:48;0.40;;;0.35;;
6809;SDS011;3443;48.812;9.112;2023-03-08T13:47:34;0.65;;;0.40;;
6809;SDS011;3443;48.812;9.112;2023-03-08T13:50:03;0.88;;;0.88;;
6809;SDS011;3443;48.812;9.112;2023-03-08T13:52:31;0.30;;;0.30;;
6809;SDS011;3443;48.812;9.112;2023-03-08T13:55:00;0.50;;;0.50;;
6809;SDS011;3443;48.812;9.112;2023-03-08T13:57:32;1.10;;;0.30;;
6809;SDS011;3443;48.812;9.112;2023-03-08T14:00:02;0.57;;;0.40;;
6809;SDS011;3443;48.812;9.112;2023-03-08T14:02:49;0.38;;;0.30;;
6809;SDS011;3443;48.812;9.112;2023-03-08T14:06:01;0.88;;;0.50;;
6809;SDS011;3443;48.812;9.112;2023-03-08T14:08:17;0.40;;;0.40;;
6809;SDS011;3443;48.812;9.112;2023-03-08T14:10:53;0.50;;;0.50;;
6809;SDS011;3443;48.812;9.112;2023-03-08T14:13:30;0.40;;;0.40;;
6809;SDS011;3443;48.812;9.112;2023-03-08T14:15:59;0.40;;;0.40;;
6809;SDS011;3443;48.812;9.112;2023-03-08T14:21:04;0.43;;;0.30;;
6809;SDS011;3443;48.812;9.112;2023-03-08T14:23:38;1.40;;;0.20;;
6809;SDS011;3443;48.812;9.112;2023-03-08T14:26:20;0.45;;;0.32;;
6809;SDS011;3443;48.812;9.112;2023-03-08T14:31:56;3.20;;;0.20;;
6809;SDS011;3443;48.812;9.112;2023-03-08T14:34:35;0.30;;;0.30;;
6809;SDS011;3443;48.812;9.112;2023-03-08T14:37:06;1.85;;;;;
6809;SDS011;3443;48.812;9.112;2023-03-08T14:39:41;0.30;;;0.30;;
6809;SDS011;3443;48.812;9.112;2023-03-08T14:42:10;0.28;;;0.20;;
6809;SDS011;3443;48.812;9.112;2023-03-08T14:47:22;1.02;;;0.20;;
6809;SDS011;3443;48.812;9.112;2023-03-08T14:52:42;0.20;;;0.20;;
6809;SDS011;3443;48.812;9.112;2023-03-08T14:55:22;0.45;;;0.30;;
6809;SDS011;3443;48.812;9.112;2023-03-08T14:57:51;0.13;;;0.13;;
6809;SDS011;3443;48.812;9.112;2023-03-08T15:00:19;0.20;;;0.20;;
6809;SDS011;3443;48.812;9.112;2023-03-08T15:02:46;0.22;;;0.10;;
6809;SDS011;3443;48.812;9.112;2023-03-08T15:05:13;1.38;;;0.20;;
6809;SDS011;3443;48.812;9.112;2023-03-08T15:07:40;0.77;;;0.70;;
6809;SDS011;3443;48.812;9.112;2023-03-08T15:10:06;0.40;;;0.20;;
6809;SDS011;3443;48.812;9.112;2023-03-08T15:12:37;0.30;;;0.20;;
6809;SDS011;3443;48.812;9.112;2023-03-08T15:15:08;0.75;;;0.25;;
6809;SDS011;3443;48.812;9.112;2023-03-08T15:17:36;0.20;;;0.20;;
6809;SDS011;3443;48.812;9.112;2023-03-08T15:20:02;0.20;;;0.20;;
6809;SDS011;3443;48.812;9.112;2023-03-08T15:22:30;0.32;;;0.30;;
6809;SDS011;3443;48.812;9.112;2023-03-08T15:24:56;0.77;;;0.20;;
6809;SDS011;3443;48.812;9.112;2023-03-08T15:27:22;0.40;;;0.40;;
6809;SDS011;3443;48.812;9.112;2023-03-08T15:29:48;2.30;;;0.30;;
6809;SDS011;3443;48.812;9.112;2023-03-08T15:32:13;0.60;;;0.60;;
6809;SDS011;3443;48.812;9.112;2023-03-08T15:34:39;0.45;;;0.30;;
6809;SDS011;3443;48.812;9.112;2023-03-08T15:37:05;0.43;;;0.38;;
6809;SDS011;3443;48.812;9.112;2023-03-08T15:39:31;0.45;;;0.40;;
6809;SDS011;3443;48.812;9.112;2023-03-08T15:41:57;0.20;;;0.20;;
6809;SDS011;3443;48.812;9.112;2023-03-08T15:44:23;1.65;;;0.30;;
6809;SDS011;3443;48.812;9.112;2023-03-08T15:46:49;0.80;;;0.30;;
6809;SDS011;3443;48.812;9.112;2023-03-08T15:49:14;0.20;;;0.20;;
6809;SDS011;3443;48.812;9.112;2023-03-08T15:51:40;1.63;;;0.32;;
6809;SDS011;3443;48.812;9.112;2023-03-08T15:54:07;0.45;;;0.28;;
6809;SDS011;3443;48.812;9.112;2023-03-08T15:56:34;0.40;;;0.40;;
6809;SDS011;3443;48.812;9.112;2023-03-08T15:58:59;0.28;;;0.28;;
6809;SDS011;3443;48.812;9.112;2023-03-08T16:01:25;0.20;;;0.20;;
6809;SDS011;3443;48.812;9.112;2023-03-08T16:03:51;1.05;;;0.30;;
6809;SDS011;3443;48.812;9.112;2023-03-08T16:06:18;1.45;;;0.30;;
6809;SDS011;3443;48.812;9.112;2023-03-08T16:08:44;0.35;;;0.25;;
6809;SDS011;3443;48.812;9.112;2023-03-08T16:11:10;0.43;;;0.43;;
6809;SDS011;3443;48.812;9.112;2023-03-08T16:13:38;0.22;;;0.22;;
6809;SDS011;3443;48.812;9.112;2023-03-08T16:16:04;0.20;;;0.20;;
6809;SDS011;3443;48.812;9.112;2023-03-08T16:18:30;0.30;;;0.30;;
6809;SDS011;3443;48.812;9.112;2023-03-08T16:20:57;0.20;;;0.20;;
6809;SDS011;3443;48.812;9.112;2023-03-08T16:23:23;0.60;;;0.30;;
6809;SDS011;3443;48.812;9.112;2023-03-08T16:25:56;3.42;;;3.22;;
6809;SDS011;3443;48.812;9.112;2023-03-08T16:28:26;3.78;;;3.58;;
6809;SDS011;3443;48.812;9.112;2023-03-08T16:30:52;1.40;;;1.40;;
6809;SDS011;3443;48.812;9.112;2023-03-08T16:33:18;0.57;;;0.55;;
6809;SDS011;3443;48.812;9.112;2023-03-08T16:35:48;0.20;;;0.20;;
6809;SDS011;3443;48.812;9.112;2023-03-08T16:38:14;1.30;;;0.22;;
6809;SDS011;3443;48.812;9.112;2023-03-08T16:40:40;0.75;;;0.20;;
6809;SDS011;3443;48.812;9.112;2023-03-08T16:43:06;0.20;;;0.20;;